createdAt,value
2023-01-29T00:02:44.698Z,12.23
2023-01-29T00:05:48.893Z,12.77
2023-01-29T00:08:50.873Z,11.37
2023-01-29T00:11:53.102Z,11.50
2023-01-29T00:14:55.049Z,11.37
2023-01-29T00:17:57.376Z,10.57
2023-01-29T00:20:59.372Z,10.30
2023-01-29T00:24:02.794Z,10.60
2023-01-29T00:27:05.979Z,10.07
2023-01-29T00:30:12.805Z,8.90
2023-01-29T00:33:15.001Z,9.70
2023-01-29T00:36:19.932Z,9.13
2023-01-29T00:39:33.681Z,9.33
2023-01-29T00:43:00.156Z,9.53
2023-01-29T00:46:02.264Z,9.97
2023-01-29T00:49:05.070Z,8.90
2023-01-29T00:52:25.151Z,9.00
2023-01-29T00:55:27.476Z,8.30
2023-01-29T00:58:34.155Z,8.80
2023-01-29T01:01:55.348Z,8.73
2023-01-29T01:04:57.435Z,8.10
2023-01-29T01:07:59.742Z,7.77
2023-01-29T01:11:04.355Z,7.43
2023-01-29T01:14:06.644Z,8.27
2023-01-29T01:17:08.927Z,8.23
2023-01-29T01:20:12.466Z,8.17
2023-01-29T01:23:14.439Z,8.40
2023-01-29T01:26:16.718Z,7.37
2023-01-29T01:29:18.759Z,7.67
2023-01-29T01:32:21.041Z,7.17
2023-01-29T01:35:23.009Z,7.97
2023-01-29T01:38:25.250Z,6.70
2023-01-29T01:41:27.291Z,7.00
2023-01-29T01:44:51.516Z,7.67
2023-01-29T01:48:00.612Z,7.43
2023-01-29T01:51:06.373Z,8.33
2023-01-29T01:54:28.703Z,7.67
2023-01-29T01:57:32.618Z,7.93
2023-01-29T02:00:34.654Z,7.90
2023-01-29T02:04:04.412Z,8.23
2023-01-29T02:07:28.586Z,8.07
2023-01-29T02:10:38.055Z,8.10
2023-01-29T02:13:42.661Z,8.57
2023-01-29T02:16:44.927Z,8.77
2023-01-29T02:20:04.917Z,8.10
2023-01-29T02:23:13.081Z,8.77
2023-01-29T02:26:36.373Z,8.90
2023-01-29T02:30:03.806Z,9.70
2023-01-29T02:33:39.421Z,9.00
2023-01-29T02:37:11.966Z,9.67
2023-01-29T02:40:23.990Z,9.57
2023-01-29T02:43:47.629Z,9.07
2023-01-29T02:46:57.872Z,7.90
2023-01-29T02:50:07.937Z,9.10
2023-01-29T02:53:18.021Z,10.00
2023-01-29T02:56:36.640Z,9.00
2023-01-29T02:59:43.347Z,9.50
2023-01-29T03:02:55.467Z,8.47
2023-01-29T03:06:08.551Z,10.27
2023-01-29T03:09:19.169Z,9.03
2023-01-29T03:12:33.940Z,8.27
2023-01-29T03:15:47.006Z,9.10
2023-01-29T03:18:58.785Z,7.73
2023-01-29T03:22:04.203Z,9.10
2023-01-29T03:25:26.920Z,8.63
2023-01-29T03:28:48.782Z,8.53
2023-01-29T03:32:09.139Z,7.20
2023-01-29T03:35:14.930Z,7.30
2023-01-29T03:38:17.199Z,8.50
2023-01-29T03:41:34.611Z,7.80
2023-01-29T03:45:00.759Z,7.80
2023-01-29T03:48:16.504Z,7.80
2023-01-29T03:51:21.342Z,7.27
2023-01-29T03:54:49.199Z,7.47
2023-01-29T03:58:04.858Z,6.40
2023-01-29T04:01:35.339Z,6.67
2023-01-29T04:04:40.083Z,7.30
2023-01-29T04:07:44.678Z,7.40
2023-01-29T04:10:49.248Z,7.43
2023-01-29T04:13:52.680Z,6.80
2023-01-29T04:17:00.232Z,7.23
2023-01-29T04:20:02.736Z,6.17
2023-01-29T04:23:07.726Z,6.70
2023-01-29T04:26:24.377Z,6.53
2023-01-29T04:29:48.274Z,5.87
2023-01-29T04:33:03.703Z,6.13
2023-01-29T04:36:17.979Z,5.87
2023-01-29T04:39:30.599Z,6.23
2023-01-29T04:43:08.119Z,6.10
2023-01-29T04:46:21.308Z,6.30
2023-01-29T04:49:47.500Z,6.37
2023-01-29T04:53:10.687Z,6.63
2023-01-29T04:56:31.567Z,6.63
2023-01-29T04:59:39.216Z,6.03
2023-01-29T05:02:43.573Z,6.80
2023-01-29T05:05:48.751Z,6.60
2023-01-29T05:08:51.649Z,6.80
2023-01-29T05:11:54.988Z,6.77
2023-01-29T05:15:02.191Z,5.93
2023-01-29T05:18:08.757Z,6.50
2023-01-29T05:21:11.036Z,5.80
2023-01-29T05:24:17.750Z,7.10
2023-01-29T05:27:50.958Z,5.63
2023-01-29T05:30:55.513Z,6.80
2023-01-29T05:33:57.767Z,6.73
2023-01-29T05:37:00.101Z,6.87
2023-01-29T05:40:02.053Z,6.20
2023-01-29T05:43:05.312Z,6.03
2023-01-29T05:46:07.506Z,6.67
2023-01-29T05:49:09.844Z,5.23
2023-01-29T05:52:11.808Z,7.03
2023-01-29T05:55:14.147Z,8.00
2023-01-29T05:58:16.211Z,7.40
2023-01-29T06:01:24.234Z,7.73
2023-01-29T06:04:26.207Z,6.33
2023-01-29T06:07:28.464Z,7.13
2023-01-29T06:10:30.465Z,8.17
2023-01-29T06:13:32.699Z,8.07
2023-01-29T06:16:34.719Z,8.13
2023-01-29T06:19:37.158Z,7.47
2023-01-29T06:22:39.227Z,7.77
2023-01-29T06:25:41.437Z,7.67
2023-01-29T06:28:45.172Z,7.50
2023-01-29T06:31:47.542Z,6.90
2023-01-29T06:34:49.862Z,8.23
2023-01-29T06:37:52.167Z,8.07
2023-01-29T06:40:54.781Z,8.37
2023-01-29T06:43:57.062Z,8.40
2023-01-29T06:46:59.020Z,8.43
2023-01-29T06:50:01.458Z,8.30
2023-01-29T06:53:03.399Z,8.30
2023-01-29T06:56:07.100Z,8.27
2023-01-29T06:59:09.152Z,8.27
2023-01-29T07:02:11.531Z,8.77
2023-01-29T07:05:13.567Z,9.13
2023-01-29T07:08:15.788Z,8.93
2023-01-29T07:11:17.878Z,9.30
2023-01-29T07:14:20.174Z,9.53
2023-01-29T07:17:22.192Z,8.60
2023-01-29T07:20:29.288Z,10.07
2023-01-29T07:23:31.387Z,9.97
2023-01-29T07:26:33.634Z,14.00
2023-01-29T07:29:35.619Z,11.37
2023-01-29T07:32:37.918Z,9.83
2023-01-29T07:35:41.906Z,10.13
2023-01-29T07:38:44.276Z,9.77
2023-01-29T07:41:46.287Z,9.93
2023-01-29T07:44:48.501Z,9.83
2023-01-29T07:47:55.301Z,10.07
2023-01-29T07:50:58.921Z,9.47
2023-01-29T07:54:00.881Z,10.40
2023-01-29T07:57:03.179Z,9.73
2023-01-29T08:00:05.419Z,10.27
2023-01-29T08:03:16.112Z,10.17
2023-01-29T08:06:18.081Z,9.60
2023-01-29T08:09:20.344Z,10.47
2023-01-29T08:12:22.417Z,10.57
2023-01-29T08:15:25.234Z,10.93
2023-01-29T08:18:27.321Z,11.10
2023-01-29T08:21:29.721Z,11.03
2023-01-29T08:24:41.820Z,10.37
2023-01-29T08:27:54.142Z,13.00
2023-01-29T08:30:56.269Z,11.90
2023-01-29T08:33:58.941Z,11.83
2023-01-29T08:37:00.952Z,12.00
2023-01-29T08:40:03.588Z,13.57
2023-01-29T08:43:09.167Z,12.80
2023-01-29T08:46:11.836Z,13.57
2023-01-29T08:49:13.811Z,11.10
2023-01-29T08:52:16.064Z,11.50
2023-01-29T08:55:18.659Z,10.63
2023-01-29T08:58:21.258Z,10.47
2023-01-29T09:01:23.309Z,10.43
2023-01-29T09:04:25.638Z,11.00
2023-01-29T09:07:29.378Z,11.57
2023-01-29T09:10:32.073Z,11.40
2023-01-29T09:13:34.444Z,12.17
2023-01-29T09:16:36.738Z,11.10
2023-01-29T09:19:38.767Z,11.13
2023-01-29T09:22:41.764Z,11.60
2023-01-29T09:25:44.100Z,12.03
2023-01-29T09:28:46.375Z,11.40
2023-01-29T09:31:48.433Z,13.00
2023-01-29T09:34:50.787Z,12.17
2023-01-29T09:37:53.050Z,11.67
2023-01-29T09:41:01.470Z,12.50
2023-01-29T09:44:10.638Z,11.80
2023-01-29T09:47:16.811Z,11.93
2023-01-29T09:50:51.717Z,12.77
2023-01-29T09:54:18.145Z,11.20
2023-01-29T09:57:29.227Z,10.60
2023-01-29T10:00:38.704Z,11.77
2023-01-29T10:04:00.887Z,10.43
2023-01-29T10:07:03.183Z,11.23
2023-01-29T10:10:10.472Z,11.47
2023-01-29T10:13:40.593Z,11.53
2023-01-29T10:17:19.774Z,13.10
2023-01-29T10:20:37.349Z,12.20
2023-01-29T10:23:48.748Z,11.70
2023-01-29T10:26:52.642Z,11.97
2023-01-29T10:29:56.280Z,11.97
2023-01-29T10:33:03.349Z,11.87
2023-01-29T10:36:09.805Z,13.07
2023-01-29T10:39:23.816Z,12.07
2023-01-29T10:42:40.561Z,13.13
2023-01-29T10:45:52.368Z,12.13
2023-01-29T10:49:05.388Z,13.67
2023-01-29T10:52:26.166Z,13.23
2023-01-29T10:55:46.540Z,13.73
2023-01-29T10:59:18.014Z,12.57
2023-01-29T11:02:22.647Z,12.60
2023-01-29T11:05:38.777Z,13.33
2023-01-29T11:08:46.650Z,17.70
2023-01-29T11:11:58.606Z,14.57
2023-01-29T11:15:14.720Z,13.30
2023-01-29T11:18:17.161Z,14.13
2023-01-29T11:21:19.316Z,13.57
2023-01-29T11:24:21.593Z,14.67
2023-01-29T11:27:26.591Z,12.83
2023-01-29T11:30:39.325Z,12.93
2023-01-29T11:33:41.456Z,13.23
2023-01-29T11:36:45.031Z,13.83
2023-01-29T11:39:50.588Z,13.60
2023-01-29T11:42:53.807Z,14.30
2023-01-29T11:46:12.739Z,13.10
2023-01-29T11:49:31.404Z,14.10
2023-01-29T11:52:43.914Z,14.20
2023-01-29T11:55:50.768Z,14.40
2023-01-29T11:58:56.298Z,14.07
2023-01-29T12:02:35.603Z,13.90
2023-01-29T12:05:39.080Z,14.87
2023-01-29T12:08:41.670Z,15.27
2023-01-29T12:11:44.147Z,15.80
2023-01-29T12:14:46.543Z,16.50
2023-01-29T12:18:16.148Z,16.83
2023-01-29T12:21:30.050Z,16.90
2023-01-29T12:24:37.200Z,17.43
2023-01-29T12:27:51.231Z,18.10
2023-01-29T12:31:17.716Z,18.30
2023-01-29T12:34:27.327Z,17.97
2023-01-29T12:37:42.807Z,18.97
2023-01-29T12:41:16.860Z,19.67
2023-01-29T12:44:29.364Z,18.97
2023-01-29T12:48:01.971Z,20.33
2023-01-29T12:51:12.449Z,21.97
2023-01-29T12:54:22.161Z,20.70
2023-01-29T12:57:37.173Z,20.50
2023-01-29T13:00:44.199Z,18.87
2023-01-29T13:03:55.199Z,20.73
2023-01-29T13:07:20.678Z,19.83
2023-01-29T13:10:30.183Z,19.67
2023-01-29T13:13:39.046Z,19.43
2023-01-29T13:16:48.266Z,18.40
2023-01-29T13:19:53.619Z,19.20
2023-01-29T13:22:59.498Z,19.47
2023-01-29T13:26:06.168Z,19.40
2023-01-29T13:29:20.650Z,19.70
2023-01-29T13:32:31.823Z,19.10
2023-01-29T13:35:40.039Z,17.43
2023-01-29T13:38:45.084Z,19.93
2023-01-29T13:41:47.355Z,18.40
2023-01-29T13:44:53.271Z,19.80
2023-01-29T13:48:24.186Z,19.10
2023-01-29T13:51:38.298Z,18.03
2023-01-29T13:54:41.588Z,19.87
2023-01-29T13:57:43.916Z,17.47
2023-01-29T14:00:49.146Z,17.50
2023-01-29T14:04:07.832Z,17.90
2023-01-29T14:07:47.652Z,16.87
2023-01-29T14:11:31.046Z,17.73
2023-01-29T14:14:49.328Z,17.80
2023-01-29T14:18:05.795Z,18.50
2023-01-29T14:21:21.160Z,18.43
2023-01-29T14:24:27.977Z,17.60
2023-01-29T14:27:31.355Z,18.77
2023-01-29T14:30:35.184Z,18.03
2023-01-29T14:33:42.366Z,18.73
2023-01-29T14:36:47.790Z,18.47
2023-01-29T14:39:59.198Z,17.53
2023-01-29T14:43:19.823Z,18.73
2023-01-29T14:46:56.122Z,20.30
2023-01-29T14:50:00.706Z,18.63
2023-01-29T14:53:27.907Z,19.03
2023-01-29T14:56:37.211Z,17.77
2023-01-29T15:00:22.305Z,17.80
2023-01-29T15:03:48.887Z,17.53
2023-01-29T15:06:57.652Z,16.50
2023-01-29T15:10:23.669Z,17.17
2023-01-29T15:13:37.721Z,17.77
2023-01-29T15:17:03.714Z,19.43
2023-01-29T15:20:27.320Z,17.00
2023-01-29T15:23:34.187Z,17.53
2023-01-29T15:26:37.189Z,18.00
2023-01-29T15:29:41.006Z,16.70
2023-01-29T15:32:43.513Z,16.63
2023-01-29T15:35:48.369Z,17.43
2023-01-29T15:39:19.043Z,17.40
2023-01-29T15:42:25.901Z,17.30
2023-01-29T15:45:31.384Z,16.83
2023-01-29T15:48:41.691Z,16.83
2023-01-29T15:51:45.965Z,21.73
2023-01-29T15:54:48.816Z,22.47
2023-01-29T15:57:51.636Z,20.73
2023-01-29T16:00:55.686Z,20.07
2023-01-29T16:04:02.876Z,20.53
2023-01-29T16:07:07.711Z,18.60
2023-01-29T16:10:36.498Z,18.40
2023-01-29T16:13:42.936Z,17.63
2023-01-29T16:16:45.388Z,17.13
2023-01-29T16:19:56.262Z,18.33
2023-01-29T16:22:59.497Z,16.67
2023-01-29T16:26:14.929Z,17.33
2023-01-29T16:29:23.734Z,19.00
2023-01-29T16:32:25.845Z,19.07
2023-01-29T16:35:28.086Z,20.20
2023-01-29T16:38:35.327Z,18.90
2023-01-29T16:41:38.477Z,18.03
2023-01-29T16:44:45.384Z,19.50
2023-01-29T16:48:19.051Z,18.63
2023-01-29T16:51:20.957Z,19.13
2023-01-29T16:54:27.773Z,18.57
2023-01-29T16:57:33.315Z,20.47
2023-01-29T17:00:35.920Z,20.27
2023-01-29T17:03:39.236Z,18.10
2023-01-29T17:06:44.991Z,19.03
2023-01-29T17:09:51.852Z,20.73
2023-01-29T17:13:01.271Z,19.47
2023-01-29T17:16:20.511Z,19.43
2023-01-29T17:19:25.333Z,19.97
2023-01-29T17:22:27.362Z,18.83
2023-01-29T17:25:29.735Z,20.47
2023-01-29T17:28:31.712Z,17.83
2023-01-29T17:31:34.738Z,19.57
2023-01-29T17:34:37.384Z,20.73
2023-01-29T17:37:40.253Z,20.37
2023-01-29T17:41:16.266Z,19.40
2023-01-29T17:44:19.210Z,18.53
2023-01-29T17:47:21.280Z,19.37
2023-01-29T17:50:27.126Z,18.17
2023-01-29T17:53:44.132Z,17.97
2023-01-29T17:56:47.893Z,15.70
2023-01-29T17:59:50.063Z,16.73
2023-01-29T18:02:52.383Z,18.73
2023-01-29T18:05:54.632Z,18.00
2023-01-29T18:08:57.031Z,18.07
2023-01-29T18:12:00.597Z,17.57
2023-01-29T18:15:02.950Z,18.77
2023-01-29T18:18:06.086Z,16.73
2023-01-29T18:21:08.323Z,17.03
2023-01-29T18:24:10.396Z,18.43
2023-01-29T18:27:12.725Z,17.63
2023-01-29T18:30:15.245Z,17.77
2023-01-29T18:33:18.341Z,18.97
2023-01-29T18:36:27.668Z,17.13
2023-01-29T18:39:35.285Z,18.20
2023-01-29T18:42:37.364Z,17.77
2023-01-29T18:45:39.770Z,19.30
2023-01-29T18:48:42.849Z,19.90
2023-01-29T18:51:45.474Z,20.57
2023-01-29T18:54:47.636Z,18.13
2023-01-29T18:58:29.555Z,17.77
2023-01-29T19:01:17.708Z,17.53
2023-01-29T19:04:20.233Z,18.13
2023-01-29T19:07:22.616Z,17.40
2023-01-29T19:10:24.949Z,14.57
2023-01-29T19:13:27.175Z,16.43
2023-01-29T19:16:30.431Z,17.53
2023-01-29T19:19:33.194Z,15.30
2023-01-29T19:22:35.733Z,15.20
2023-01-29T19:25:39.458Z,15.47
2023-01-29T19:28:42.620Z,16.83
2023-01-29T19:31:44.843Z,15.47
2023-01-29T19:34:47.393Z,16.07
2023-01-29T19:37:49.596Z,14.47
2023-01-29T19:40:52.394Z,15.03
2023-01-29T19:43:54.457Z,16.07
2023-01-29T19:46:58.405Z,15.80
2023-01-29T19:50:01.116Z,16.77
2023-01-29T19:53:03.768Z,18.30
2023-01-29T19:56:13.456Z,18.63
2023-01-29T19:59:23.859Z,19.93
2023-01-29T20:02:27.897Z,14.43
2023-01-29T20:05:30.617Z,15.17
2023-01-29T20:08:35.442Z,13.23
2023-01-29T20:11:39.821Z,14.80
2023-01-29T20:14:48.711Z,14.73
2023-01-29T20:17:51.279Z,12.93
2023-01-29T20:20:53.743Z,12.87
2023-01-29T20:23:56.486Z,11.97
2023-01-29T20:26:58.899Z,14.87
2023-01-29T20:30:01.317Z,14.07
2023-01-29T20:33:04.178Z,14.70
2023-01-29T20:36:11.420Z,14.30
2023-01-29T20:39:13.649Z,13.43
2023-01-29T20:42:16.210Z,12.43
2023-01-29T20:45:18.860Z,14.73
2023-01-29T20:48:21.399Z,11.63
2023-01-29T20:51:23.947Z,13.17
2023-01-29T20:54:26.578Z,11.47
2023-01-29T20:57:29.110Z,11.63
2023-01-29T21:00:31.670Z,14.90
2023-01-29T21:03:33.928Z,13.60
2023-01-29T21:06:36.353Z,11.60
2023-01-29T21:09:38.469Z,12.20
2023-01-29T21:12:40.842Z,13.07
2023-01-29T21:15:43.057Z,14.17
2023-01-29T21:18:45.375Z,12.53
2023-01-29T21:21:47.431Z,11.33
2023-01-29T21:24:49.847Z,12.37
2023-01-29T21:27:51.891Z,13.10
2023-01-29T21:31:10.099Z,13.00
2023-01-29T21:34:12.162Z,13.30
2023-01-29T21:37:15.463Z,12.20
2023-01-29T21:40:18.165Z,13.60
2023-01-29T21:43:20.567Z,10.97
2023-01-29T21:46:22.655Z,12.17
2023-01-29T21:49:25.158Z,12.60
2023-01-29T21:52:27.127Z,10.37
2023-01-29T21:55:29.424Z,13.63
2023-01-29T21:58:31.722Z,13.17
2023-01-29T22:01:37.803Z,12.83
2023-01-29T22:04:42.334Z,13.20
2023-01-29T22:07:44.713Z,13.20
2023-01-29T22:10:47.006Z,12.00
2023-01-29T22:13:49.487Z,13.63
2023-01-29T22:16:51.512Z,11.97
2023-01-29T22:19:53.839Z,11.90
2023-01-29T22:22:58.434Z,13.73
2023-01-29T22:26:08.976Z,12.93
2023-01-29T22:29:16.890Z,13.80
2023-01-29T22:32:19.141Z,14.80
2023-01-29T22:35:21.156Z,13.67
2023-01-29T22:38:23.893Z,14.30
2023-01-29T22:41:25.904Z,11.23
2023-01-29T22:44:28.237Z,12.37
2023-01-29T22:47:33.262Z,12.17
2023-01-29T22:50:35.496Z,13.50
2023-01-29T22:53:43.287Z,16.63
2023-01-29T22:56:45.523Z,14.87
2023-01-29T22:59:47.562Z,16.43
2023-01-29T23:02:50.554Z,13.53
2023-01-29T23:05:52.584Z,12.33
2023-01-29T23:08:54.929Z,11.57
2023-01-29T23:11:56.873Z,12.80
2023-01-29T23:14:59.212Z,12.97
2023-01-29T23:18:01.573Z,12.10
2023-01-29T23:21:04.779Z,15.23
2023-01-29T23:24:07.808Z,15.43
2023-01-29T23:27:16.415Z,13.80
2023-01-29T23:30:18.837Z,13.30
2023-01-29T23:33:21.549Z,12.93
2023-01-29T23:36:23.732Z,12.60
2023-01-29T23:39:26.015Z,12.20
2023-01-29T23:42:27.946Z,12.23
2023-01-29T23:45:30.218Z,13.60
2023-01-29T23:48:32.195Z,14.20
2023-01-29T23:51:34.548Z,13.30
2023-01-29T23:54:36.570Z,12.37
2023-01-29T23:57:38.800Z,12.13
